METAR Data
IDs: Format: Raw Decoded Include TAF

Data at: 1022 UTC 21 Oct 2019

METAR for:KAEJ (Buena Vista/Central, CO, US)
Text:KAEJ 211015Z AUTO 30016G31KT 10SM CLR M01/M14 A2995 RMK AO2 T10151136
Temperature: -1.5°C ( 29°F)
Dewpoint:-13.6°C ( 8°F) [RH = 39%]
Pressure (altimeter):29.95 inches Hg (1014.3 mb)
Winds:from the WNW (300 degrees) at 18 MPH (16 knots; 8.2 m/s) gusting to 36 MPH (31 knots; 15.9 m/s)
Visibility:10 or more sm (16+ km)
Ceiling:at least 12,000 feet AGL
Clouds:sky clear below 12,000 feet AGL
QC Flag:automated observation with no human augmentation